Time;durP1;ratioP1;P1;durP2;ratioP2;P2;SDS_P1;SDS_P2;PMS_P1;PMS_P2;Temp;Humidity;BMP_temperature;BMP_pressure;BME280_temperature;BME280_humidity;BME280_pressure;Samples;Min_cycle;Max_cycle;Signal;HPM_P1;HPM_P2
2023/02/02 00:01:27;;;;;;;11.55;5.40;;;;;;;;;;6153551;23;20032;-85
2023/02/02 00:03:58;;;;;;;12.68;5.85;;;;;;;;;;6163192;23;20017;-85
2023/02/02 00:06:28;;;;;;;16.92;5.60;;;;;;;;;;6164589;23;20021;-85
2023/02/02 00:09:01;;;;;;;6.72;3.75;;;;;;;;;;6154092;23;20021;-85
2023/02/02 00:11:31;;;;;;;10.38;5.07;;;;;;;;;;6159497;23;20018;-85
2023/02/02 00:14:03;;;;;;;20.33;6.65;;;;;;;;;;6100146;23;20025;-85
2023/02/02 00:16:36;;;;;;;13.48;3.78;;;;;;;;;;6075498;23;20018;-85
2023/02/02 00:19:06;;;;;;;15.03;5.20;;;;;;;;;;6074447;23;20475;-85
2023/02/02 00:21:33;;;;;;;10.57;4.70;;;;;;;;;;6124614;23;20249;-86
2023/02/02 00:24:03;;;;;;;14.45;4.55;;;;;;;;;;6074676;23;20025;-86
2023/02/02 00:26:30;;;;;;;11.40;6.22;;;;;;;;;;6135117;23;20021;-85
2023/02/02 00:28:57;;;;;;;9.57;5.72;;;;;;;;;;6074341;23;20022;-86
2023/02/02 00:31:25;;;;;;;8.93;4.03;;;;;;;;;;6124958;23;20014;-86
2023/02/02 00:33:57;;;;;;;11.93;4.38;;;;;;;;;;6124706;23;20014;-85
2023/02/02 00:36:27;;;;;;;9.82;4.65;;;;;;;;;;6073345;23;20018;-86
2023/02/02 00:38:55;;;;;;;13.02;5.03;;;;;;;;;;6097977;23;20021;-85
2023/02/02 00:41:23;;;;;;;9.00;4.93;;;;;;;;;;6107550;23;20024;-85
2023/02/02 00:46:32;;;;;;;17.95;5.25;;;;;;;;;;6133467;23;20029;-85
2023/02/02 00:49:01;;;;;;;19.08;4.80;;;;;;;;;;6107199;23;20025;-86
2023/02/02 00:51:32;;;;;;;12.73;5.20;;;;;;;;;;6074704;23;20466;-85
2023/02/02 00:53:59;;;;;;;13.13;4.53;;;;;;;;;;6099193;23;20014;-86
2023/02/02 00:56:32;;;;;;;13.20;5.13;;;;;;;;;;6075155;23;20366;-86
2023/02/02 00:58:59;;;;;;;18.67;6.78;;;;;;;;;;6074561;23;20495;-87
2023/02/02 01:01:26;;;;;;;9.00;3.97;;;;;;;;;;6073101;23;20022;-86
2023/02/02 01:03:56;;;;;;;9.35;5.38;;;;;;;;;;6099093;23;20014;-86
2023/02/02 01:06:23;;;;;;;10.80;4.50;;;;;;;;;;6098760;23;20320;-86
2023/02/02 01:08:54;;;;;;;16.95;5.75;;;;;;;;;;6074564;23;20493;-86
2023/02/02 01:11:21;;;;;;;12.15;4.93;;;;;;;;;;6098312;23;20014;-86
2023/02/02 01:13:48;;;;;;;7.50;4.85;;;;;;;;;;6106920;23;20018;-86
2023/02/02 01:16:16;;;;;;;11.70;4.75;;;;;;;;;;6108131;23;20331;-86
2023/02/02 01:18:45;;;;;;;10.15;5.28;;;;;;;;;;6074425;23;20037;-86
2023/02/02 01:21:15;;;;;;;9.73;4.10;;;;;;;;;;6099492;23;20025;-86
2023/02/02 01:23:45;;;;;;;10.57;4.78;;;;;;;;;;6097925;23;20018;-86
2023/02/02 01:26:18;;;;;;;17.83;4.72;;;;;;;;;;6097360;23;20482;-86
2023/02/02 01:28:45;;;;;;;6.82;3.47;;;;;;;;;;6098574;23;20022;-86
2023/02/02 01:31:15;;;;;;;11.32;4.82;;;;;;;;;;6124409;23;20014;-86
2023/02/02 01:33:43;;;;;;;11.00;5.13;;;;;;;;;;6124116;23;20355;-86
2023/02/02 01:36:12;;;;;;;17.58;5.47;;;;;;;;;;6124736;23;20018;-86
2023/02/02 01:38:42;;;;;;;14.07;6.82;;;;;;;;;;6073394;23;20018;-86
2023/02/02 01:41:13;;;;;;;10.55;5.22;;;;;;;;;;6073994;23;20025;-85
2023/02/02 01:43:53;;;;;;;13.23;6.35;;;;;;;;;;6108564;23;20017;-86
2023/02/02 01:46:25;;;;;;;12.90;6.20;;;;;;;;;;6075399;23;20014;-86
2023/02/02 01:49:03;;;;;;;9.60;5.18;;;;;;;;;;6107402;23;20021;-86
2023/02/02 01:51:48;;;;;;;16.52;4.88;;;;;;;;;;6073992;23;20025;-86
2023/02/02 01:54:18;;;;;;;14.35;5.15;;;;;;;;;;6108073;23;20021;-86
2023/02/02 01:56:50;;;;;;;16.38;6.78;;;;;;;;;;6074740;23;20018;-86
2023/02/02 01:59:21;;;;;;;8.15;4.15;;;;;;;;;;6107784;23;20319;-85
2023/02/02 02:01:49;;;;;;;10.00;4.50;;;;;;;;;;6098645;23;20363;-85
2023/02/02 02:04:17;;;;;;;8.23;4.28;;;;;;;;;;6072629;23;20475;-85
2023/02/02 02:06:50;;;;;;;9.18;4.88;;;;;;;;;;6099119;23;20029;-86
2023/02/02 02:09:17;;;;;;;12.35;5.72;;;;;;;;;;6073101;23;20021;-85
2023/02/02 02:11:48;;;;;;;12.80;5.78;;;;;;;;;;6105815;23;20341;-86
2023/02/02 02:17:14;;;;;;;6.10;4.80;;;;;;;;;;6161066;23;20469;-86
2023/02/02 02:26:53;;;;;;;15.23;5.97;;;;;;;;;;6152269;23;20017;-86
2023/02/02 02:29:55;;;;;;;12.80;4.13;;;;;;;;;;6125885;23;20017;-86
2023/02/02 02:32:38;;;;;;;12.43;5.55;;;;;;;;;;6155693;23;20019;-85
2023/02/02 02:35:10;;;;;;;10.48;3.95;;;;;;;;;;6126259;23;20020;-85
2023/02/02 02:37:42;;;;;;;11.65;5.97;;;;;;;;;;6160461;23;20017;-86
2023/02/02 02:40:15;;;;;;;14.82;4.85;;;;;;;;;;6126123;23;20357;-85
2023/02/02 02:42:45;;;;;;;11.75;4.78;;;;;;;;;;6153602;23;20024;-85
2023/02/02 02:45:13;;;;;;;21.27;7.53;;;;;;;;;;6127568;23;20022;-85
2023/02/02 02:47:43;;;;;;;10.63;4.68;;;;;;;;;;6126922;23;20346;-85
2023/02/02 02:50:15;;;;;;;9.68;5.18;;;;;;;;;;6152896;23;20013;-85
2023/02/02 02:52:43;;;;;;;13.70;4.40;;;;;;;;;;6152035;23;20017;-85
2023/02/02 02:55:13;;;;;;;7.75;4.05;;;;;;;;;;6126205;23;20027;-85
2023/02/02 02:58:05;;;;;;;14.30;6.05;;;;;;;;;;6161593;23;20024;-85
2023/02/02 03:00:58;;;;;;;14.38;6.22;;;;;;;;;;6161405;23;20020;-85
2023/02/02 03:03:40;;;;;;;11.80;4.00;;;;;;;;;;6153726;23;20014;-85
2023/02/02 03:06:12;;;;;;;11.82;4.25;;;;;;;;;;6161802;23;20020;-85
2023/02/02 03:08:42;;;;;;;;;;;;;;;;;;6161179;23;20020;-85
2023/02/02 03:11:13;;;;;;;14.50;6.38;;;;;;;;;;6126905;23;19924;-85
2023/02/02 03:13:41;;;;;;;11.82;4.85;;;;;;;;;;6126977;23;20198;-85
2023/02/02 03:16:09;;;;;;;15.85;6.20;;;;;;;;;;6126982;23;20021;-85
2023/02/02 03:18:37;;;;;;;14.82;6.93;;;;;;;;;;6151528;23;20021;-85
2023/02/02 03:21:07;;;;;;;14.82;5.78;;;;;;;;;;6162034;23;20024;-85
2023/02/02 03:23:34;;;;;;;17.15;5.75;;;;;;;;;;6163198;23;20446;-85
2023/02/02 03:26:04;;;;;;;9.45;3.55;;;;;;;;;;6152838;23;20021;-86
2023/02/02 03:28:34;;;;;;;13.05;4.55;;;;;;;;;;6152467;23;20024;-85
2023/02/02 03:31:01;;;;;;;8.48;5.28;;;;;;;;;;6151693;23;20018;-85
2023/02/02 03:33:32;;;;;;;14.63;4.88;;;;;;;;;;6150665;23;20014;-85
2023/02/02 03:36:00;;;;;;;15.38;7.47;;;;;;;;;;6152575;23;20484;-86
2023/02/02 03:38:27;;;;;;;10.80;5.20;;;;;;;;;;6151851;23;20021;-86
2023/02/02 03:40:57;;;;;;;16.88;6.85;;;;;;;;;;6152750;23;20020;-86
2023/02/02 03:43:26;;;;;;;12.48;5.32;;;;;;;;;;6151597;23;20354;-85
2023/02/02 03:45:57;;;;;;;8.88;4.85;;;;;;;;;;6160201;23;20014;-86
2023/02/02 03:48:24;;;;;;;12.60;5.82;;;;;;;;;;6162791;23;20013;-85
2023/02/02 03:50:52;;;;;;;16.05;6.78;;;;;;;;;;6162765;23;20021;-85
2023/02/02 03:53:20;;;;;;;14.75;6.18;;;;;;;;;;6153739;23;20370;-85
2023/02/02 03:55:48;;;;;;;8.73;5.03;;;;;;;;;;6163803;23;20018;-86
2023/02/02 03:58:16;;;;;;;11.57;6.40;;;;;;;;;;6151322;23;20020;-85
2023/02/02 04:00:45;;;;;;;7.18;5.85;;;;;;;;;;6152640;23;20028;-85
2023/02/02 04:03:12;;;;;;;12.15;4.88;;;;;;;;;;6153403;23;20017;-85
2023/02/02 04:05:40;;;;;;;10.80;5.22;;;;;;;;;;6151880;23;20462;-85
2023/02/02 04:08:07;;;;;;;13.98;5.68;;;;;;;;;;6152123;23;20013;-85
2023/02/02 04:10:35;;;;;;;14.88;5.03;;;;;;;;;;6160219;23;20024;-85
2023/02/02 04:13:07;;;;;;;13.75;5.35;;;;;;;;;;6134038;23;20021;-81
2023/02/02 04:15:40;;;;;;;8.85;4.80;;;;;;;;;;6109066;23;20014;-81
2023/02/02 04:18:07;;;;;;;9.05;4.75;;;;;;;;;;6098124;23;20359;-81
2023/02/02 04:20:35;;;;;;;9.85;4.82;;;;;;;;;;6097255;23;20014;-81
2023/02/02 04:23:04;;;;;;;11.13;4.97;;;;;;;;;;6097770;23;20501;-81
2023/02/02 04:25:35;;;;;;;15.35;6.13;;;;;;;;;;6098612;23;20010;-81
2023/02/02 04:28:05;;;;;;;17.00;6.80;;;;;;;;;;6097892;23;20034;-82
2023/02/02 04:30:32;;;;;;;10.88;4.22;;;;;;;;;;6094293;23;20014;-82
2023/02/02 04:32:59;;;;;;;11.65;5.18;;;;;;;;;;6098888;23;20018;-81
2023/02/02 04:35:26;;;;;;;15.90;5.55;;;;;;;;;;6096067;23;20458;-82
2023/02/02 04:37:55;;;;;;;10.38;5.43;;;;;;;;;;6075572;23;20041;-81
2023/02/02 04:40:22;;;;;;;11.95;5.07;;;;;;;;;;6121807;23;20366;-81
2023/02/02 04:42:50;;;;;;;24.52;6.05;;;;;;;;;;6074157;23;20022;-81
2023/02/02 04:45:18;;;;;;;13.75;5.03;;;;;;;;;;6099506;23;20017;-81
2023/02/02 04:47:45;;;;;;;12.43;5.95;;;;;;;;;;6073165;23;20025;-81
2023/02/02 04:50:12;;;;;;;17.98;7.85;;;;;;;;;;6107174;23;20351;-80
2023/02/02 04:52:42;;;;;;;11.45;5.18;;;;;;;;;;6124492;23;20030;-81
2023/02/02 04:55:09;;;;;;;9.60;4.55;;;;;;;;;;6098587;23;20029;-81
2023/02/02 04:57:39;;;;;;;13.70;5.57;;;;;;;;;;6098052;23;20360;-81
2023/02/02 05:00:11;;;;;;;11.48;4.28;;;;;;;;;;6132179;23;20022;-81
2023/02/02 05:02:39;;;;;;;10.60;5.85;;;;;;;;;;6123020;23;20013;-81
2023/02/02 05:05:09;;;;;;;11.65;5.18;;;;;;;;;;6098038;23;20025;-81
2023/02/02 05:07:39;;;;;;;10.30;4.30;;;;;;;;;;6123046;23;20031;-81
2023/02/02 05:10:08;;;;;;;12.45;4.40;;;;;;;;;;6124025;23;20342;-80
2023/02/02 05:12:35;;;;;;;9.68;4.82;;;;;;;;;;6092131;23;20014;-80
2023/02/02 05:15:04;;;;;;;8.57;3.85;;;;;;;;;;6153189;23;20021;-80
2023/02/02 05:17:33;;;;;;;6.50;5.28;;;;;;;;;;6127586;23;20017;-81
2023/02/02 05:20:00;;;;;;;10.88;4.70;;;;;;;;;;6153253;23;20103;-80
2023/02/02 05:22:27;;;;;;;11.23;4.80;;;;;;;;;;6127730;23;20021;-80
2023/02/02 05:24:54;;;;;;;9.77;4.93;;;;;;;;;;6154833;23;20014;-80
2023/02/02 05:27:22;;;;;;;7.18;3.75;;;;;;;;;;6151591;23;20025;-80
2023/02/02 05:29:49;;;;;;;5.93;4.07;;;;;;;;;;6151841;23;20021;-80
2023/02/02 05:32:16;;;;;;;8.95;4.07;;;;;;;;;;6152313;23;20028;-79
2023/02/02 05:34:47;;;;;;;7.57;4.72;;;;;;;;;;6153361;23;20017;-80
2023/02/02 05:37:14;;;;;;;10.40;6.00;;;;;;;;;;6127833;23;20017;-80
2023/02/02 05:39:41;;;;;;;14.40;6.25;;;;;;;;;;6151985;23;20406;-80
2023/02/02 05:42:09;;;;;;;12.10;5.05;;;;;;;;;;6128622;23;20028;-81
2023/02/02 05:44:38;;;;;;;22.75;5.85;;;;;;;;;;6153644;23;20021;-80
2023/02/02 05:47:05;;;;;;;10.32;4.18;;;;;;;;;;6153155;23;20342;-80
2023/02/02 05:49:32;;;;;;;9.38;5.88;;;;;;;;;;6127514;23;20017;-80
2023/02/02 05:52:01;;;;;;;11.73;4.88;;;;;;;;;;6162284;23;20020;-80
2023/02/02 05:54:28;;;;;;;15.70;5.20;;;;;;;;;;6127975;23;20036;-80
2023/02/02 05:56:56;;;;;;;14.82;6.13;;;;;;;;;;6150064;23;20018;-80
2023/02/02 05:59:24;;;;;;;17.98;5.28;;;;;;;;;;6142243;23;20028;-80
2023/02/02 06:01:51;;;;;;;15.43;5.15;;;;;;;;;;6152917;23;20013;-80
2023/02/02 06:04:18;;;;;;;13.35;4.43;;;;;;;;;;6154275;23;20024;-80
2023/02/02 06:06:46;;;;;;;11.88;5.07;;;;;;;;;;6153238;23;20028;-80
2023/02/02 06:09:15;;;;;;;14.43;4.80;;;;;;;;;;6152970;23;20328;-80
2023/02/02 06:11:43;;;;;;;10.50;5.55;;;;;;;;;;6126825;23;20018;-80
2023/02/02 06:14:13;;;;;;;11.13;5.15;;;;;;;;;;6098798;23;20025;-81
2023/02/02 06:16:40;;;;;;;11.70;5.05;;;;;;;;;;6124305;23;20010;-80
2023/02/02 06:19:10;;;;;;;11.60;5.45;;;;;;;;;;6097891;23;20028;-81
2023/02/02 06:21:39;;;;;;;8.73;4.68;;;;;;;;;;6124408;23;20021;-80
2023/02/02 06:24:07;;;;;;;9.40;4.45;;;;;;;;;;6098765;23;20018;-80
2023/02/02 06:26:36;;;;;;;12.55;4.25;;;;;;;;;;6098696;23;20014;-80
2023/02/02 06:29:03;;;;;;;8.30;6.65;;;;;;;;;;6073944;23;20025;-80
2023/02/02 06:31:30;;;;;;;11.52;4.85;;;;;;;;;;6098689;23;20350;-80
2023/02/02 06:33:58;;;;;;;15.60;5.07;;;;;;;;;;6074466;23;20017;-80
2023/02/02 06:36:27;;;;;;;9.20;4.40;;;;;;;;;;6098408;23;20018;-81
2023/02/02 06:38:56;;;;;;;6.78;4.88;;;;;;;;;;6124300;23;20021;-81
2023/02/02 06:41:25;;;;;;;10.02;5.25;;;;;;;;;;6133773;23;20014;-81
2023/02/02 06:43:54;;;;;;;30.13;5.88;;;;;;;;;;6097009;23;20355;-80
2023/02/02 06:46:24;;;;;;;10.68;5.95;;;;;;;;;;6096784;23;20018;-81
2023/02/02 06:48:51;;;;;;;15.80;5.63;;;;;;;;;;6121252;23;20083;-81
2023/02/02 06:51:20;;;;;;;7.20;4.60;;;;;;;;;;6097567;23;20029;-81
2023/02/02 06:53:48;;;;;;;9.88;5.90;;;;;;;;;;6123680;23;20014;-81
2023/02/02 06:56:16;;;;;;;7.00;3.95;;;;;;;;;;6123730;23;20010;-81
2023/02/02 06:58:45;;;;;;;7.90;3.97;;;;;;;;;;6097631;23;20030;-81
2023/02/02 07:01:14;;;;;;;14.98;3.72;;;;;;;;;;6073612;23;20018;-81
2023/02/02 07:03:43;;;;;;;10.25;4.72;;;;;;;;;;6073641;23;20021;-81
2023/02/02 07:06:13;;;;;;;9.38;4.70;;;;;;;;;;6133647;23;20324;-81
2023/02/02 07:08:40;;;;;;;12.43;5.78;;;;;;;;;;6094984;23;20351;-81
2023/02/02 07:11:07;;;;;;;18.00;5.53;;;;;;;;;;6097645;23;20023;-81
2023/02/02 07:13:34;;;;;;;7.50;3.70;;;;;;;;;;6138597;23;20018;-81
2023/02/02 07:16:03;;;;;;;7.28;4.35;;;;;;;;;;6125445;23;20025;-81
2023/02/02 07:18:31;;;;;;;8.43;4.13;;;;;;;;;;6161867;23;20539;-81
2023/02/02 07:20:59;;;;;;;12.60;5.63;;;;;;;;;;6159767;23;20362;-81
2023/02/02 07:23:29;;;;;;;16.30;5.35;;;;;;;;;;6151987;23;20025;-81
2023/02/02 07:26:01;;;;;;;5.70;3.55;;;;;;;;;;6127010;23;20290;-81
2023/02/02 07:28:28;;;;;;;11.30;4.22;;;;;;;;;;6150788;23;20450;-81
2023/02/02 07:30:58;;;;;;;10.23;4.80;;;;;;;;;;6149726;23;20024;-81
2023/02/02 07:33:28;;;;;;;12.05;4.53;;;;;;;;;;6152729;23;20021;-82
2023/02/02 07:35:56;;;;;;;13.98;4.30;;;;;;;;;;6150330;23;20593;-81
2023/02/02 07:38:23;;;;;;;9.77;4.82;;;;;;;;;;6151078;23;20013;-81
2023/02/02 07:40:53;;;;;;;10.75;4.10;;;;;;;;;;6150826;23;20496;-82
2023/02/02 07:43:20;;;;;;;14.45;5.13;;;;;;;;;;6152877;23;20024;-81
2023/02/02 07:45:49;;;;;;;11.07;5.15;;;;;;;;;;6152813;23;20036;-81
2023/02/02 07:48:17;;;;;;;13.57;6.32;;;;;;;;;;6154733;23;20013;-82
2023/02/02 07:50:47;;;;;;;12.00;5.35;;;;;;;;;;6153575;23;20024;-81
2023/02/02 07:53:18;;;;;;;13.20;4.82;;;;;;;;;;6127781;23;20022;-82
2023/02/02 07:55:45;;;;;;;8.07;5.15;;;;;;;;;;6153859;23;20013;-81
2023/02/02 07:58:14;;;;;;;10.27;4.97;;;;;;;;;;6153811;23;20013;-82
2023/02/02 08:00:42;;;;;;;6.28;3.80;;;;;;;;;;6153313;23;20020;-82
2023/02/02 08:03:11;;;;;;;11.27;4.75;;;;;;;;;;6154959;23;20021;-81
2023/02/02 08:05:40;;;;;;;9.30;3.97;;;;;;;;;;6164160;23;20025;-81
2023/02/02 08:08:08;;;;;;;13.32;5.03;;;;;;;;;;6163954;23;20020;-81
2023/02/02 08:10:39;;;;;;;18.08;6.18;;;;;;;;;;6153040;23;20013;-81
2023/02/02 08:13:08;;;;;;;9.45;5.15;;;;;;;;;;6152856;23;20025;-82
2023/02/02 08:15:36;;;;;;;13.75;5.32;;;;;;;;;;6165090;23;20018;-81
2023/02/02 08:18:08;;;;;;;8.55;4.80;;;;;;;;;;6164191;23;20020;-81
2023/02/02 08:20:35;;;;;;;13.43;7.10;;;;;;;;;;6163273;23;20014;-81
2023/02/02 08:23:03;;;;;;;10.68;4.85;;;;;;;;;;6154638;23;20018;-81
2023/02/02 08:25:30;;;;;;;11.30;5.28;;;;;;;;;;6164247;23;20017;-82
2023/02/02 08:28:00;;;;;;;19.00;5.30;;;;;;;;;;6152243;23;20013;-82
2023/02/02 08:30:27;;;;;;;15.57;5.35;;;;;;;;;;6150735;23;20022;-81
2023/02/02 08:32:57;;;;;;;8.95;5.15;;;;;;;;;;6152069;23;20014;-82
2023/02/02 08:35:24;;;;;;;11.70;5.03;;;;;;;;;;6153123;23;20021;-83
2023/02/02 08:37:51;;;;;;;8.75;4.40;;;;;;;;;;6153473;23;20014;-79
2023/02/02 08:40:19;;;;;;;12.65;5.22;;;;;;;;;;6152467;23;20481;-83
2023/02/02 08:42:53;;;;;;;14.52;6.10;;;;;;;;;;6127501;23;20025;-83
2023/02/02 08:45:24;;;;;;;12.57;5.03;;;;;;;;;;6154372;23;20018;-83
2023/02/02 08:47:52;;;;;;;11.95;3.97;;;;;;;;;;6154818;23;20020;-83
2023/02/02 08:50:19;;;;;;;9.82;5.22;;;;;;;;;;6154399;23;20010;-83
2023/02/02 08:52:46;;;;;;;16.10;4.95;;;;;;;;;;6155243;23;20014;-83
2023/02/02 08:55:14;;;;;;;9.30;5.32;;;;;;;;;;6154400;23;20017;-83
2023/02/02 08:57:42;;;;;;;11.07;5.75;;;;;;;;;;6150707;23;20009;-82
2023/02/02 09:00:10;;;;;;;8.77;4.07;;;;;;;;;;6151844;23;20017;-83
2023/02/02 09:02:39;;;;;;;8.43;3.88;;;;;;;;;;6153455;23;20036;-83
2023/02/02 09:05:09;;;;;;;8.55;4.82;;;;;;;;;;6152400;23;20495;-82
2023/02/02 09:07:36;;;;;;;11.95;5.95;;;;;;;;;;6161572;23;20018;-82
2023/02/02 09:10:03;;;;;;;10.57;6.35;;;;;;;;;;6154175;23;20013;-82
2023/02/02 09:12:30;;;;;;;8.10;4.28;;;;;;;;;;6143522;23;20019;-83
2023/02/02 09:14:58;;;;;;;9.63;4.35;;;;;;;;;;6124894;23;20067;-82
2023/02/02 09:17:25;;;;;;;11.73;4.07;;;;;;;;;;6131818;23;20010;-83
2023/02/02 09:19:53;;;;;;;13.45;3.85;;;;;;;;;;6124600;23;20036;-83
2023/02/02 09:22:21;;;;;;;9.82;3.78;;;;;;;;;;6131370;23;20061;-82
2023/02/02 09:24:48;;;;;;;15.55;5.45;;;;;;;;;;6099373;23;20013;-82
2023/02/02 09:27:18;;;;;;;9.82;4.22;;;;;;;;;;6121936;23;20019;-82
2023/02/02 09:29:47;;;;;;;7.80;3.78;;;;;;;;;;6097777;23;20022;-83
2023/02/02 09:32:14;;;;;;;13.15;4.20;;;;;;;;;;6131106;23;20014;-83
2023/02/02 09:34:46;;;;;;;6.35;4.03;;;;;;;;;;6134057;23;20025;-83
2023/02/02 09:37:15;;;;;;;9.77;3.40;;;;;;;;;;6123916;23;20014;-83
2023/02/02 09:39:42;;;;;;;11.50;4.13;;;;;;;;;;6132768;23;20023;-82
2023/02/02 09:42:27;;;;;;;6.50;3.72;;;;;;;;;;6097754;23;20018;-82
2023/02/02 09:45:00;;;;;;;15.48;5.20;;;;;;;;;;6075510;23;20025;-83
2023/02/02 09:47:36;;;;;;;7.78;4.32;;;;;;;;;;6123973;23;20014;-83
2023/02/02 09:50:15;;;;;;;10.55;4.85;;;;;;;;;;6096409;23;20022;-83
2023/02/02 09:52:49;;;;;;;11.63;4.00;;;;;;;;;;6124245;23;20029;-83
2023/02/02 09:55:21;;;;;;;5.85;3.67;;;;;;;;;;6134426;23;20010;-82
2023/02/02 09:57:51;;;;;;;11.05;5.47;;;;;;;;;;6108825;23;20014;-83
2023/02/02 10:00:27;;;;;;;12.15;4.70;;;;;;;;;;6134525;23;20021;-83
2023/02/02 10:03:00;;;;;;;10.35;4.05;;;;;;;;;;6128727;23;20010;-83
2023/02/02 10:05:40;;;;;;;7.72;3.65;;;;;;;;;;6133216;23;20351;-83
2023/02/02 10:08:19;;;;;;;8.18;3.85;;;;;;;;;;6123841;23;20195;-82
2023/02/02 10:10:50;;;;;;;11.18;4.95;;;;;;;;;;6132223;23;20018;-83
2023/02/02 10:13:26;;;;;;;20.98;5.25;;;;;;;;;;6147892;23;20013;-83
2023/02/02 10:15:58;;;;;;;6.05;3.78;;;;;;;;;;6181775;23;20385;-82
2023/02/02 10:18:37;;;;;;;10.05;4.90;;;;;;;;;;6193761;23;20021;-82
2023/02/02 10:21:06;;;;;;;11.45;4.53;;;;;;;;;;6190966;23;20468;-83
2023/02/02 10:23:38;;;;;;;11.38;4.25;;;;;;;;;;6183193;23;20016;-83
2023/02/02 10:26:11;;;;;;;12.38;4.03;;;;;;;;;;6192111;23;20040;-83
2023/02/02 10:28:42;;;;;;;7.93;3.70;;;;;;;;;;6156226;23;20017;-82
2023/02/02 10:31:18;;;;;;;8.00;4.85;;;;;;;;;;6180139;23;20017;-82
2023/02/02 10:33:54;;;;;;;9.40;4.00;;;;;;;;;;6182286;23;20473;-83
2023/02/02 10:36:30;;;;;;;6.28;3.10;;;;;;;;;;6156860;23;20027;-82
2023/02/02 10:39:02;;;;;;;9.75;4.13;;;;;;;;;;6192366;23;20013;-83
2023/02/02 10:41:34;;;;;;;17.48;4.57;;;;;;;;;;6190635;23;20025;-83
2023/02/02 10:44:12;;;;;;;6.53;4.57;;;;;;;;;;6183098;23;20013;-83
2023/02/02 10:46:44;;;;;;;8.93;4.25;;;;;;;;;;6191140;23;20012;-82
2023/02/02 10:49:25;;;;;;;18.42;5.05;;;;;;;;;;6190445;23;20013;-83
2023/02/02 10:51:56;;;;;;;6.32;3.50;;;;;;;;;;6182303;23;20024;-82
2023/02/02 10:54:40;;;;;;;12.27;3.88;;;;;;;;;;6191325;23;20009;-82
2023/02/02 10:57:10;;;;;;;10.80;5.63;;;;;;;;;;6191698;23;20350;-82
2023/02/02 10:59:45;;;;;;;7.10;3.00;;;;;;;;;;6156600;23;20017;-82
2023/02/02 11:02:16;;;;;;;7.00;3.63;;;;;;;;;;6180780;23;20021;-82
2023/02/02 11:07:31;;;;;;;6.82;3.47;;;;;;;;;;6191306;23;20021;-83
2023/02/02 11:10:00;;;;;;;7.68;3.53;;;;;;;;;;6181770;23;20017;-83
2023/02/02 11:12:31;;;;;;;13.75;4.50;;;;;;;;;;6190784;23;20013;-83
2023/02/02 11:15:00;;;;;;;8.00;3.85;;;;;;;;;;6192489;23;20346;-83
2023/02/02 11:17:29;;;;;;;10.38;5.18;;;;;;;;;;6192483;23;20009;-83
2023/02/02 11:19:57;;;;;;;8.95;4.28;;;;;;;;;;6182070;23;20017;-82
2023/02/02 11:22:33;;;;;;;9.98;4.10;;;;;;;;;;6181541;23;20249;-83
2023/02/02 11:25:06;;;;;;;9.30;4.40;;;;;;;;;;6194795;23;20418;-83
2023/02/02 11:27:41;;;;;;;8.60;3.72;;;;;;;;;;6191748;23;20017;-83
2023/02/02 11:30:23;;;;;;;8.65;4.20;;;;;;;;;;6193208;23;20013;-83
2023/02/02 11:32:54;;;;;;;6.00;3.85;;;;;;;;;;6183437;23;20476;-83
2023/02/02 11:35:30;;;;;;;24.98;4.10;;;;;;;;;;6185086;23;20013;-83
2023/02/02 11:38:09;;;;;;;9.52;3.78;;;;;;;;;;6183779;23;20017;-83
2023/02/02 11:40:52;;;;;;;8.75;5.07;;;;;;;;;;6193887;23;20024;-83
2023/02/02 11:43:49;;;;;;;7.30;4.75;;;;;;;;;;6185146;23;20024;-83
2023/02/02 11:46:42;;;;;;;8.45;3.25;;;;;;;;;;6194249;23;20345;-83
2023/02/02 11:49:17;;;;;;;7.57;4.10;;;;;;;;;;6194344;23;20020;-83
2023/02/02 11:51:57;;;;;;;9.52;4.18;;;;;;;;;;6158332;23;20021;-83
2023/02/02 11:54:28;;;;;;;7.82;3.65;;;;;;;;;;6183836;23;20024;-83
2023/02/02 11:57:03;;;;;;;10.60;3.75;;;;;;;;;;6193974;23;20017;-83
2023/02/02 11:59:34;;;;;;;4.95;4.07;;;;;;;;;;6192735;23;20032;-83
2023/02/02 12:02:27;;;;;;;7.80;3.28;;;;;;;;;;6190840;23;20330;-83
2023/02/02 12:05:33;;;;;;;4.32;3.38;;;;;;;;;;6195075;23;20017;-83
2023/02/02 12:08:01;;;;;;;12.80;4.15;;;;;;;;;;6183426;23;20021;-83
2023/02/02 12:10:34;;;;;;;8.68;3.40;;;;;;;;;;6182171;23;20034;-83
2023/02/02 12:13:14;;;;;;;8.27;2.67;;;;;;;;;;6188780;23;20017;-83
2023/02/02 12:15:51;;;;;;;9.55;3.47;;;;;;;;;;6194639;23;20449;-83
2023/02/02 12:18:34;;;;;;;13.40;3.10;;;;;;;;;;6182757;23;20009;-83
2023/02/02 12:21:06;;;;;;;6.85;3.13;;;;;;;;;;6193787;23;20012;-83
2023/02/02 12:23:51;;;;;;;8.35;3.88;;;;;;;;;;6184763;23;20209;-83
2023/02/02 12:26:24;;;;;;;5.65;3.33;;;;;;;;;;6194391;23;20028;-83
2023/02/02 12:29:18;;;;;;;9.88;4.90;;;;;;;;;;6194322;23;20020;-83
2023/02/02 12:31:56;;;;;;;5.97;3.40;;;;;;;;;;6192135;23;20468;-83
2023/02/02 12:34:39;;;;;;;11.27;3.33;;;;;;;;;;6191725;23;20028;-83
2023/02/02 12:37:15;;;;;;;6.70;3.05;;;;;;;;;;6192440;23;20028;-83
2023/02/02 12:40:37;;;;;;;7.00;3.17;;;;;;;;;;6181873;23;20020;-83
2023/02/02 12:43:54;;;;;;;3.90;2.33;;;;;;;;;;6171906;23;20025;-83
2023/02/02 12:46:49;;;;;;;10.65;4.85;;;;;;;;;;6194435;23;20017;-83
2023/02/02 12:49:32;;;;;;;11.82;3.47;;;;;;;;;;6182931;23;20028;-83
2023/02/02 12:52:16;;;;;;;9.15;3.63;;;;;;;;;;6192378;23;20013;-83
2023/02/02 12:55:04;;;;;;;14.30;6.65;;;;;;;;;;6193247;23;20393;-83
2023/02/02 12:57:46;;;;;;;20.45;5.13;;;;;;;;;;6193947;23;20021;-83
2023/02/02 13:00:38;;;;;;;8.75;4.55;;;;;;;;;;6192332;23;20493;-83
2023/02/02 13:03:28;;;;;;;18.05;10.18;;;;;;;;;;6188694;23;20020;-83
2023/02/02 13:06:05;;;;;;;10.90;6.38;;;;;;;;;;6192072;23;20020;-83
2023/02/02 13:08:38;;;;;;;19.27;11.00;;;;;;;;;;6182995;23;20017;-83
2023/02/02 13:11:28;;;;;;;9.48;4.90;;;;;;;;;;6191691;23;20009;-83
2023/02/02 13:13:58;;;;;;;5.90;3.05;;;;;;;;;;6183424;23;20013;-83
2023/02/02 13:16:26;;;;;;;6.88;3.85;;;;;;;;;;6157621;23;20028;-83
2023/02/02 13:19:01;;;;;;;8.57;3.88;;;;;;;;;;6158483;23;20036;-83
2023/02/02 13:21:35;;;;;;;5.75;2.88;;;;;;;;;;6182638;23;20048;-83
2023/02/02 13:24:06;;;;;;;11.25;3.65;;;;;;;;;;6184067;23;20480;-83
2023/02/02 13:26:37;;;;;;;8.85;3.05;;;;;;;;;;6156908;23;20330;-83
2023/02/02 13:29:11;;;;;;;6.47;2.10;;;;;;;;;;6191198;23;20342;-83
2023/02/02 13:31:44;;;;;;;4.88;2.40;;;;;;;;;;6190986;23;20013;-83
2023/02/02 13:34:16;;;;;;;9.10;2.28;;;;;;;;;;6155983;23;20013;-83
2023/02/02 13:36:49;;;;;;;11.40;2.45;;;;;;;;;;6177317;23;20020;-82
2023/02/02 13:39:19;;;;;;;4.90;2.03;;;;;;;;;;6181003;23;20466;-82
2023/02/02 13:41:47;;;;;;;4.28;2.75;;;;;;;;;;6180760;23;20021;-82
2023/02/02 13:44:20;;;;;;;6.10;2.03;;;;;;;;;;6180577;23;20009;-82
2023/02/02 13:46:55;;;;;;;4.28;2.28;;;;;;;;;;6181568;23;20029;-82
2023/02/02 13:49:26;;;;;;;6.43;2.45;;;;;;;;;;6191295;23;20021;-82
2023/02/02 13:52:21;;;;;;;3.78;1.67;;;;;;;;;;6193501;23;20020;-82
2023/02/02 13:55:20;;;;;;;6.32;2.72;;;;;;;;;;6193524;23;20020;-82
2023/02/02 13:58:10;;;;;;;4.15;2.42;;;;;;;;;;6192981;23;20020;-82
2023/02/02 14:00:46;;;;;;;3.40;2.42;;;;;;;;;;6193043;23;20009;-82
2023/02/02 14:03:32;;;;;;;7.60;3.15;;;;;;;;;;6185900;23;20350;-82
2023/02/02 14:06:07;;;;;;;3.25;2.20;;;;;;;;;;6193937;23;20019;-82
2023/02/02 14:08:44;;;;;;;2.50;1.70;;;;;;;;;;6181764;23;20028;-82
2023/02/02 14:11:14;;;;;;;;;;;;;;;;;;6193742;23;20035;-82
2023/02/02 14:16:45;;;;;;;6.55;3.15;;;;;;;;;;6193324;23;20315;-82
2023/02/02 14:19:16;;;;;;;4.97;2.67;;;;;;;;;;6181284;23;20393;-82
2023/02/02 14:22:02;;;;;;;4.60;2.67;;;;;;;;;;6183628;23;20017;-82
2023/02/02 14:24:42;;;;;;;5.50;3.42;;;;;;;;;;6194183;23;20323;-82
2023/02/02 14:27:41;;;;;;;6.80;2.78;;;;;;;;;;6193386;23;20009;-82
2023/02/02 14:30:23;;;;;;;6.10;2.42;;;;;;;;;;6183136;23;20463;-82
2023/02/02 14:32:52;;;;;;;;;;;;;;;;;;6187535;23;20024;-82
2023/02/02 14:35:55;;;;;;;10.07;2.58;;;;;;;;;;6155799;23;19920;-82
2023/02/02 14:38:44;;;;;;;5.35;2.83;;;;;;;;;;6149954;23;20027;-82
2023/02/02 14:43:42;;;;;;;8.65;4.50;;;;;;;;;;6191811;23;20363;-82
2023/02/02 14:44:03;;;;;;;7.85;4.30;;;;;;;;;;6181717;23;20077;-82
2023/02/02 14:46:36;;;;;;;12.60;6.07;;;;;;;;;;6156705;23;20025;-82
2023/02/02 14:49:12;;;;;;;13.05;6.78;;;;;;;;;;6182757;23;20024;-82
2023/02/02 14:51:50;;;;;;;7.63;3.88;;;;;;;;;;6193284;23;20020;-82
2023/02/02 14:54:25;;;;;;;4.60;3.83;;;;;;;;;;6181444;23;20024;-82
2023/02/02 14:56:55;;;;;;;9.23;5.73;;;;;;;;;;6156112;23;20021;-82
2023/02/02 14:59:30;;;;;;;7.25;6.00;;;;;;;;;;6191593;23;20017;-82
2023/02/02 15:02:03;;;;;;;10.95;4.10;;;;;;;;;;6181107;23;20013;-82
2023/02/02 15:04:33;;;;;;;7.35;3.40;;;;;;;;;;6190560;23;20017;-82
2023/02/02 15:07:38;;;;;;;5.50;3.08;;;;;;;;;;6191250;23;20021;-82
2023/02/02 15:10:10;;;;;;;7.28;3.83;;;;;;;;;;6190286;23;20016;-82
2023/02/02 15:12:42;;;;;;;6.32;4.75;;;;;;;;;;6180395;23;20024;-82
2023/02/02 15:15:19;;;;;;;6.00;3.22;;;;;;;;;;6188354;23;20042;-82
2023/02/02 15:17:54;;;;;;;9.65;4.28;;;;;;;;;;6180470;23;20021;-82
2023/02/02 15:20:28;;;;;;;11.32;4.78;;;;;;;;;;6192004;23;20009;-82
2023/02/02 15:22:57;;;;;;;6.45;4.43;;;;;;;;;;6186364;23;20028;-82
2023/02/02 15:25:33;;;;;;;9.23;3.67;;;;;;;;;;6192471;23;20319;-82